Time;durP1;ratioP1;P1;durP2;ratioP2;P2;SDS_P1;SDS_P2;PMS_P1;PMS_P2;Temp;Humidity;BMP_temperature;BMP_pressure;BME280_temperature;BME280_humidity;BME280_pressure;Samples;Min_cycle;Max_cycle;Signal;HPM_P1;HPM_P2
2021/07/25 00:00:36;;;;;;;27.03;17.37;;;21.10;91.10;;;;;;5077404;28;20470;-72
2021/07/25 00:03:02;;;;;;;22.90;17.33;;;21.10;90.70;;;;;;5076986;28;20471;-72
2021/07/25 00:05:29;;;;;;;25.00;15.47;;;21.10;90.60;;;;;;5077381;28;20476;-72
2021/07/25 00:07:56;;;;;;;24.43;16.80;;;21.10;90.50;;;;;;5077044;28;20468;-72
2021/07/25 00:10:23;;;;;;;22.40;16.73;;;21.10;90.40;;;;;;5077173;28;20457;-72
2021/07/25 00:12:50;;;;;;;24.17;17.03;;;21.10;90.40;;;;;;5077325;28;20506;-72
2021/07/25 00:15:17;;;;;;;25.13;17.13;;;21.10;90.50;;;;;;5077144;28;20445;-72
2021/07/25 00:17:45;;;;;;;22.63;15.07;;;21.10;90.40;;;;;;5076980;28;20445;-72
2021/07/25 00:20:12;;;;;;;21.57;16.10;;;21.10;90.30;;;;;;5076512;28;20479;-72
2021/07/25 00:22:40;;;;;;;25.60;19.63;;;21.10;90.10;;;;;;5076048;28;20477;-72
2021/07/25 00:25:14;;;;;;;24.90;18.57;;;21.00;90.10;;;;;;5076415;28;20448;-72
2021/07/25 00:27:41;;;;;;;23.60;16.70;;;21.00;90.30;;;;;;5076144;28;20902;-72
2021/07/25 00:30:10;;;;;;;23.37;17.27;;;21.00;90.40;;;;;;5075898;28;20441;-72
2021/07/25 00:32:36;;;;;;;24.53;18.37;;;21.00;90.50;;;;;;5076206;28;20812;-72
2021/07/25 00:35:05;;;;;;;21.50;17.30;;;20.90;90.40;;;;;;5076222;28;20923;-72
2021/07/25 00:37:32;;;;;;;22.23;16.67;;;20.90;90.40;;;;;;5076240;28;20445;-72
2021/07/25 00:39:59;;;;;;;20.70;16.40;;;20.90;90.20;;;;;;5075763;28;21001;-72
2021/07/25 00:42:26;;;;;;;19.97;16.43;;;20.80;89.70;;;;;;5076811;28;20465;-72
2021/07/25 00:44:53;;;;;;;27.57;15.93;;;20.80;89.10;;;;;;5076040;28;20522;-72
2021/07/25 00:47:19;;;;;;;29.93;16.33;;;20.80;88.50;;;;;;5075613;28;20962;-72
2021/07/25 00:49:46;;;;;;;22.60;15.97;;;20.80;88.10;;;;;;5075945;28;20443;-72
2021/07/25 00:52:15;;;;;;;27.53;14.53;;;20.70;87.60;;;;;;5075754;28;20472;-72
2021/07/25 00:54:41;;;;;;;21.63;13.77;;;20.80;87.50;;;;;;5075869;28;20491;-72
2021/07/25 00:57:08;;;;;;;20.33;15.60;;;20.70;87.40;;;;;;5075830;28;20436;-72
2021/07/25 00:59:35;;;;;;;23.80;14.93;;;20.70;87.40;;;;;;5075337;28;20845;-72
2021/07/25 01:02:02;;;;;;;18.90;15.90;;;20.70;87.30;;;;;;5075627;28;20464;-72
2021/07/25 01:04:40;;;;;;;21.93;15.47;;;20.60;87.10;;;;;;5075722;28;20821;-72
2021/07/25 01:07:21;;;;;;;21.43;14.97;;;20.60;87.30;;;;;;5075643;28;20448;-72
2021/07/25 01:09:55;;;;;;;22.87;14.00;;;20.60;87.30;;;;;;5075566;28;20443;-73
2021/07/25 01:12:25;;;;;;;20.03;13.33;;;20.60;87.10;;;;;;5076186;28;20986;-72
2021/07/25 01:14:55;;;;;;;23.70;13.77;;;20.50;86.80;;;;;;5076018;28;20437;-72
2021/07/25 01:17:26;;;;;;;16.03;14.33;;;20.50;86.70;;;;;;5075412;28;20448;-72
2021/07/25 01:19:55;;;;;;;18.73;12.53;;;20.40;86.30;;;;;;5075283;28;20508;-72
2021/07/25 01:22:22;;;;;;;19.83;13.40;;;20.40;86.20;;;;;;5075012;28;20530;-72
2021/07/25 01:24:49;;;;;;;21.23;13.03;;;20.40;86.00;;;;;;5075278;28;20451;-72
2021/07/25 01:27:24;;;;;;;17.83;13.40;;;20.30;85.50;;;;;;5075174;28;20444;-72
2021/07/25 01:29:53;;;;;;;15.10;11.97;;;20.30;85.60;;;;;;5074908;28;20887;-72
2021/07/25 01:32:20;;;;;;;21.80;11.80;;;20.30;85.80;;;;;;5075028;28;20473;-73
2021/07/25 01:34:49;;;;;;;14.47;12.07;;;20.30;85.90;;;;;;5075129;28;20441;-72
2021/07/25 01:37:18;;;;;;;15.20;11.40;;;20.30;86.20;;;;;;5074708;28;20938;-72
2021/07/25 01:39:45;;;;;;;17.20;12.20;;;20.20;86.50;;;;;;5074849;28;20481;-74
2021/07/25 01:42:12;;;;;;;15.47;11.33;;;20.30;87.40;;;;;;5074598;28;20460;-73
2021/07/25 01:44:39;;;;;;;13.33;10.07;;;20.20;87.60;;;;;;5074544;28;20935;-74
2021/07/25 01:47:06;;;;;;;13.47;11.43;;;20.30;87.90;;;;;;5074518;28;20455;-74
2021/07/25 01:49:32;;;;;;;16.53;12.83;;;20.20;87.90;;;;;;5074795;28;20448;-73
2021/07/25 01:51:59;;;;;;;13.17;10.97;;;20.30;88.10;;;;;;5074700;28;20465;-74
2021/07/25 01:54:27;;;;;;;14.03;11.10;;;20.20;88.00;;;;;;5074702;28;20441;-74
2021/07/25 01:56:54;;;;;;;13.37;11.10;;;20.20;88.00;;;;;;5074295;28;20841;-74
2021/07/25 01:59:20;;;;;;;13.43;11.97;;;20.20;88.10;;;;;;5074466;28;20479;-74
2021/07/25 02:01:47;;;;;;;11.37;9.93;;;20.20;88.10;;;;;;5074412;28;20468;-74
2021/07/25 02:04:14;;;;;;;13.60;12.00;;;20.20;87.90;;;;;;5075113;28;20456;-74
2021/07/25 02:06:40;;;;;;;14.00;11.63;;;20.20;87.90;;;;;;5074468;28;20440;-74
2021/07/25 02:09:08;;;;;;;13.90;11.17;;;20.20;87.80;;;;;;5074066;28;20445;-74
2021/07/25 02:11:38;;;;;;;13.27;11.10;;;20.10;87.50;;;;;;5074206;28;20460;-74
2021/07/25 02:14:05;;;;;;;14.53;11.17;;;20.10;87.40;;;;;;5074286;28;20497;-74
2021/07/25 02:16:32;;;;;;;14.87;13.40;;;20.10;87.40;;;;;;5074222;28;20444;-74
2021/07/25 02:18:59;;;;;;;14.77;12.03;;;20.10;86.90;;;;;;5074150;28;20451;-74
2021/07/25 02:21:25;;;;;;;15.83;11.90;;;20.00;86.60;;;;;;5073645;28;20495;-74
2021/07/25 02:23:52;;;;;;;17.30;12.23;;;20.00;86.50;;;;;;5074107;28;20519;-74
2021/07/25 02:26:20;;;;;;;17.90;12.40;;;20.00;86.10;;;;;;5074005;28;20453;-74
2021/07/25 02:28:48;;;;;;;14.43;12.40;;;19.90;86.00;;;;;;5074067;28;20440;-73
2021/07/25 02:31:15;;;;;;;19.10;13.20;;;19.90;85.70;;;;;;5073889;28;20456;-74
2021/07/25 02:33:41;;;;;;;14.27;11.33;;;19.80;85.40;;;;;;5073951;28;20445;-74
2021/07/25 02:36:08;;;;;;;17.80;11.40;;;19.80;85.50;;;;;;5073923;28;20440;-73
2021/07/25 02:38:35;;;;;;;20.77;12.73;;;19.70;85.60;;;;;;5073541;28;20437;-74
2021/07/25 02:41:02;;;;;;;20.27;13.83;;;19.70;86.20;;;;;;5073607;28;20882;-73
2021/07/25 02:43:28;;;;;;;17.97;12.00;;;19.70;85.30;;;;;;5073773;28;20444;-74
2021/07/25 02:45:57;;;;;;;17.20;12.60;;;19.60;85.20;;;;;;5073768;28;20455;-74
2021/07/25 02:48:24;;;;;;;22.40;12.90;;;19.60;85.10;;;;;;5073346;28;21050;-74
2021/07/25 02:50:51;;;;;;;13.93;10.40;;;19.60;85.10;;;;;;5073647;28;20466;-74
2021/07/25 02:53:17;;;;;;;15.87;11.57;;;19.60;85.10;;;;;;5073595;28;20824;-74
2021/07/25 02:55:44;;;;;;;21.17;11.57;;;19.50;84.90;;;;;;5073657;28;20449;-73
2021/07/25 02:58:11;;;;;;;15.00;12.17;;;19.50;85.00;;;;;;5073614;28;20441;-73
2021/07/25 03:00:37;;;;;;;20.13;11.83;;;19.50;85.30;;;;;;5073246;28;21059;-73
2021/07/25 03:03:05;;;;;;;14.93;11.77;;;19.40;85.20;;;;;;5073476;28;20491;-73
2021/07/25 03:05:32;;;;;;;17.30;10.97;;;19.40;85.20;;;;;;5073620;28;20448;-73
2021/07/25 03:07:59;;;;;;;14.10;10.50;;;19.40;85.20;;;;;;5073522;28;20452;-73
2021/07/25 03:10:25;;;;;;;12.40;10.10;;;19.30;85.00;;;;;;5073140;28;20828;-73
2021/07/25 03:12:52;;;;;;;18.10;11.70;;;19.30;84.90;;;;;;5073498;28;20859;-73
2021/07/25 03:15:19;;;;;;;18.07;11.27;;;19.20;85.30;;;;;;5073440;28;20444;-73
2021/07/25 03:17:46;;;;;;;13.17;11.70;;;19.20;85.80;;;;;;5073117;28;20949;-73
2021/07/25 03:20:15;;;;;;;12.30;11.13;;;19.20;85.70;;;;;;5073027;28;20480;-73
2021/07/25 03:22:42;;;;;;;15.07;11.60;;;19.20;85.70;;;;;;5072983;28;20480;-73
2021/07/25 03:25:10;;;;;;;23.13;12.63;;;19.20;85.60;;;;;;5073412;28;20812;-73
2021/07/25 03:27:37;;;;;;;21.77;11.40;;;19.20;85.60;;;;;;5073361;28;20444;-73
2021/07/25 03:30:05;;;;;;;11.33;9.93;;;19.10;85.30;;;;;;5073333;28;20443;-73
2021/07/25 03:32:32;;;;;;;15.53;9.83;;;19.10;85.40;;;;;;5072949;28;20974;-73
2021/07/25 03:34:59;;;;;;;12.30;9.77;;;19.10;85.60;;;;;;5073331;28;20471;-73
2021/07/25 03:37:27;;;;;;;12.50;10.87;;;19.00;85.60;;;;;;5073189;28;20448;-73
2021/07/25 03:39:54;;;;;;;12.03;9.53;;;19.00;85.60;;;;;;5073126;28;20558;-73
2021/07/25 03:42:21;;;;;;;12.20;10.00;;;19.00;85.50;;;;;;5073088;28;20496;-73
2021/07/25 03:44:48;;;;;;;15.20;9.50;;;19.00;85.40;;;;;;5072803;28;20843;-73
2021/07/25 03:47:15;;;;;;;10.67;9.63;;;19.00;85.20;;;;;;5072805;28;20451;-72
2021/07/25 03:49:44;;;;;;;15.43;9.60;;;19.00;85.20;;;;;;5073090;28;20436;-73
2021/07/25 03:52:12;;;;;;;14.20;10.20;;;19.00;85.20;;;;;;5073012;28;20479;-73
2021/07/25 03:54:42;;;;;;;18.80;10.40;;;19.00;85.20;;;;;;5073031;28;20484;-73
2021/07/25 03:57:09;;;;;;;19.20;11.13;;;18.90;85.20;;;;;;5073025;28;20512;-73
2021/07/25 03:59:36;;;;;;;11.53;9.53;;;18.90;85.20;;;;;;5072587;28;20950;-73
2021/07/25 04:02:03;;;;;;;13.90;10.30;;;18.90;85.90;;;;;;5072855;28;20559;-73
2021/07/25 04:04:30;;;;;;;13.03;9.53;;;18.90;85.20;;;;;;5075324;28;20440;-73
2021/07/25 04:06:57;;;;;;;16.37;10.77;;;18.90;85.20;;;;;;5076666;28;20447;-73
2021/07/25 04:09:24;;;;;;;14.57;10.77;;;18.90;85.30;;;;;;5076618;28;20444;-73
2021/07/25 04:11:52;;;;;;;17.03;10.53;;;18.90;85.40;;;;;;5076524;28;20457;-73
2021/07/25 04:14:19;;;;;;;12.37;9.90;;;18.90;85.60;;;;;;5076534;28;20440;-73
2021/07/25 04:16:46;;;;;;;12.30;10.73;;;18.90;85.60;;;;;;5076556;28;20444;-73
2021/07/25 04:19:12;;;;;;;18.00;12.20;;;18.90;85.50;;;;;;5076466;28;20436;-73
2021/07/25 04:21:39;;;;;;;13.13;10.33;;;18.90;85.60;;;;;;5075833;28;21013;-73
2021/07/25 04:24:06;;;;;;;14.77;9.73;;;18.90;85.70;;;;;;5077209;28;20453;-73
2021/07/25 04:26:33;;;;;;;15.30;10.20;;;18.90;85.80;;;;;;5076309;28;20444;-73
2021/07/25 04:29:02;;;;;;;17.07;11.00;;;18.90;85.80;;;;;;5076267;28;20444;-73
2021/07/25 04:31:29;;;;;;;18.03;10.83;;;18.90;86.10;;;;;;5075838;28;20982;-73
2021/07/25 04:33:57;;;;;;;14.60;9.87;;;19.00;86.50;;;;;;5075849;28;20859;-73
2021/07/25 04:36:27;;;;;;;12.20;10.33;;;19.00;86.90;;;;;;5075869;28;20518;-73
2021/07/25 04:38:55;;;;;;;16.60;11.27;;;19.00;87.80;;;;;;5075834;28;20850;-73
2021/07/25 04:41:24;;;;;;;15.60;10.40;;;19.10;88.70;;;;;;5075905;28;20494;-73
2021/07/25 04:44:08;;;;;;;12.70;10.20;;;19.10;89.50;;;;;;5075989;28;20536;-73
2021/07/25 04:46:40;;;;;;;14.80;11.13;;;19.10;89.80;;;;;;5075758;28;20781;-73
2021/07/25 04:49:11;;;;;;;19.73;10.53;;;19.20;90.00;;;;;;5075958;28;20425;-73
2021/07/25 04:51:39;;;;;;;16.73;10.63;;;19.20;90.00;;;;;;5075826;28;20456;-73
2021/07/25 04:54:07;;;;;;;16.93;10.87;;;19.20;90.20;;;;;;5075778;28;20448;-73
2021/07/25 04:56:49;;;;;;;17.33;11.40;;;19.30;90.30;;;;;;5075464;28;20811;-73
2021/07/25 04:59:19;;;;;;;15.87;10.53;;;19.30;90.40;;;;;;5075763;28;20436;-73
2021/07/25 05:01:50;;;;;;;22.73;12.33;;;19.30;90.60;;;;;;5075193;28;20902;-73
2021/07/25 05:04:21;;;;;;;23.37;11.03;;;19.30;90.70;;;;;;5075353;28;20483;-73
2021/07/25 05:06:48;;;;;;;16.43;10.73;;;19.30;90.70;;;;;;5075665;28;20458;-73
2021/07/25 05:09:15;;;;;;;15.40;10.47;;;19.40;90.80;;;;;;5075547;28;20460;-73
2021/07/25 05:11:45;;;;;;;16.77;10.07;;;19.40;90.90;;;;;;5075442;28;20470;-73
2021/07/25 05:14:20;;;;;;;9.70;8.60;;;19.40;90.90;;;;;;5075226;28;20440;-73
2021/07/25 05:16:58;;;;;;;10.57;8.87;;;19.50;90.90;;;;;;5074624;28;20428;-73
2021/07/25 05:19:29;;;;;;;12.10;9.27;;;19.50;90.80;;;;;;5075403;28;20424;-73
2021/07/25 05:22:05;;;;;;;11.77;9.30;;;19.60;90.80;;;;;;5074728;28;20998;-73
2021/07/25 05:24:39;;;;;;;11.53;9.03;;;19.70;90.70;;;;;;5075309;28;20424;-73
2021/07/25 05:27:06;;;;;;;11.20;8.40;;;19.70;90.60;;;;;;5075212;28;20436;-73
2021/07/25 05:29:35;;;;;;;9.83;8.27;;;19.70;90.40;;;;;;5075146;28;20496;-73
2021/07/25 05:32:03;;;;;;;10.90;8.80;;;19.70;90.70;;;;;;5075041;28;20464;-73
2021/07/25 05:34:30;;;;;;;10.37;8.30;;;19.80;90.40;;;;;;5074789;28;20930;-73
2021/07/25 05:36:57;;;;;;;9.47;7.30;;;19.80;90.40;;;;;;5075062;28;20448;-73
2021/07/25 05:39:23;;;;;;;9.17;7.80;;;19.90;90.20;;;;;;5074933;28;20490;-73
2021/07/25 05:41:50;;;;;;;9.47;7.97;;;19.90;90.20;;;;;;5074788;28;20488;-73
2021/07/25 05:44:17;;;;;;;9.50;7.10;;;19.90;90.20;;;;;;5075027;28;20444;-73
2021/07/25 05:46:43;;;;;;;9.30;8.00;;;19.90;90.20;;;;;;5074895;28;20854;-73
2021/07/25 05:49:11;;;;;;;9.10;7.30;;;19.90;90.30;;;;;;5074775;28;20452;-73
2021/07/25 05:51:38;;;;;;;12.53;8.47;;;20.00;90.20;;;;;;5074620;28;20460;-73
2021/07/25 05:54:05;;;;;;;10.00;9.00;;;20.00;90.30;;;;;;5074694;28;20444;-73
2021/07/25 05:56:32;;;;;;;12.47;8.83;;;20.10;90.40;;;;;;5074680;28;20451;-73
2021/07/25 05:58:58;;;;;;;11.17;7.90;;;20.10;90.50;;;;;;5074612;28;20441;-73
2021/07/25 06:01:25;;;;;;;9.43;8.43;;;20.20;90.60;;;;;;5074465;28;20484;-73
2021/07/25 06:03:52;;;;;;;9.37;8.47;;;20.30;90.70;;;;;;5074596;28;20449;-73
2021/07/25 06:06:20;;;;;;;8.00;7.30;;;20.40;90.50;;;;;;5074462;28;20467;-73
2021/07/25 06:08:46;;;;;;;12.40;9.07;;;20.40;90.10;;;;;;5074049;28;20942;-73
2021/07/25 06:11:21;;;;;;;9.70;8.07;;;20.40;90.10;;;;;;5074358;28;20460;-73
2021/07/25 06:13:48;;;;;;;11.83;6.40;;;20.50;89.90;;;;;;5074426;28;20428;-73
2021/07/25 06:16:15;;;;;;;9.23;7.60;;;20.50;89.40;;;;;;5074245;28;20441;-73
2021/07/25 06:18:42;;;;;;;8.50;7.27;;;20.60;89.10;;;;;;5074417;28;20437;-73
2021/07/25 06:21:09;;;;;;;10.53;6.87;;;20.70;89.20;;;;;;5073611;28;20986;-73
2021/07/25 06:23:37;;;;;;;7.07;6.43;;;20.70;88.30;;;;;;5074134;28;20792;-73
2021/07/25 06:26:04;;;;;;;10.37;6.67;;;20.70;87.90;;;;;;5073664;28;20440;-74
2021/07/25 06:28:30;;;;;;;9.10;6.80;;;20.80;87.40;;;;;;5073974;28;20452;-73
2021/07/25 06:30:57;;;;;;;10.07;7.07;;;20.90;86.90;;;;;;5073874;28;20449;-73
2021/07/25 06:33:24;;;;;;;8.33;6.00;;;21.00;86.70;;;;;;5073916;28;20502;-74
2021/07/25 06:35:51;;;;;;;7.63;5.97;;;21.10;86.30;;;;;;5073887;28;20445;-74
2021/07/25 06:38:18;;;;;;;8.03;5.40;;;21.20;85.90;;;;;;5073591;28;20441;-74
2021/07/25 06:40:48;;;;;;;8.77;6.70;;;21.30;86.50;;;;;;5073420;28;21029;-74
2021/07/25 06:43:15;;;;;;;6.37;5.37;;;21.40;84.70;;;;;;5073844;28;20428;-74
2021/07/25 06:45:43;;;;;;;5.77;4.53;;;21.50;85.10;;;;;;5073769;28;20444;-74
2021/07/25 06:48:18;;;;;;;9.87;5.57;;;21.60;84.50;;;;;;5073749;28;20441;-74
2021/07/25 06:50:46;;;;;;;6.57;5.87;;;21.70;83.90;;;;;;5073737;28;20507;-74
2021/07/25 06:53:12;;;;;;;4.90;4.40;;;21.90;82.90;;;;;;5073361;28;20871;-74
2021/07/25 06:55:39;;;;;;;9.43;5.67;;;22.00;82.30;;;;;;5073623;28;20448;-74
2021/07/25 06:58:07;;;;;;;5.70;5.23;;;22.10;81.50;;;;;;5073612;28;20448;-74
2021/07/25 07:00:34;;;;;;;6.50;4.80;;;22.30;80.50;;;;;;5073573;28;20440;-74
2021/07/25 07:03:01;;;;;;;6.83;4.50;;;22.30;79.90;;;;;;5073191;28;20818;-74
2021/07/25 07:05:30;;;;;;;5.57;4.17;;;22.40;79.60;;;;;;5073543;28;20452;-74
2021/07/25 07:07:58;;;;;;;5.27;4.23;;;22.60;79.70;;;;;;5072899;28;20445;-74
2021/07/25 07:10:26;;;;;;;7.73;3.93;;;22.70;79.20;;;;;;5073762;28;20449;-74
2021/07/25 07:12:54;;;;;;;5.23;4.73;;;22.80;78.00;;;;;;5073298;28;20496;-74
2021/07/25 07:15:24;;;;;;;6.40;4.17;;;22.90;77.10;;;;;;5073404;28;20444;-74
2021/07/25 07:17:53;;;;;;;5.03;4.30;;;22.90;76.70;;;;;;5073451;28;20451;-74
2021/07/25 07:20:20;;;;;;;7.30;4.33;;;23.10;76.10;;;;;;5073411;28;20504;-74
2021/07/25 07:22:52;;;;;;;5.10;4.57;;;23.20;75.40;;;;;;5072839;28;21021;-74
2021/07/25 07:25:19;;;;;;;6.33;3.93;;;23.40;75.10;;;;;;5073386;28;20507;-74
2021/07/25 07:27:46;;;;;;;8.80;5.23;;;23.70;75.40;;;;;;5073323;28;20451;-74
2021/07/25 07:30:13;;;;;;;4.93;3.80;;;23.80;73.30;;;;;;5073274;28;20448;-74
2021/07/25 07:32:41;;;;;;;5.83;4.60;;;23.90;73.30;;;;;;5073192;28;20457;-75
2021/07/25 07:35:09;;;;;;;4.40;3.90;;;24.10;72.10;;;;;;5073220;28;20444;-74
2021/07/25 07:37:36;;;;;;;7.53;4.57;;;24.20;71.10;;;;;;5072918;28;20452;-74
2021/07/25 07:40:03;;;;;;;4.40;3.50;;;24.40;72.00;;;;;;5076596;28;20444;-74
2021/07/25 07:42:30;;;;;;;5.93;4.40;;;24.60;72.40;;;;;;5077075;28;20484;-74
2021/07/25 07:44:58;;;;;;;8.80;4.23;;;24.80;70.50;;;;;;5076959;28;20498;-73
2021/07/25 07:47:24;;;;;;;5.63;4.17;;;24.90;68.90;;;;;;5077033;28;20444;-74
2021/07/25 07:49:53;;;;;;;7.53;4.13;;;25.10;67.90;;;;;;5076947;28;20521;-74
2021/07/25 07:52:20;;;;;;;4.93;4.30;;;25.30;67.60;;;;;;5076624;28;20468;-74
2021/07/25 07:54:47;;;;;;;5.10;4.30;;;25.50;67.00;;;;;;5076912;28;20452;-73
2021/07/25 07:57:13;;;;;;;7.20;4.17;;;25.80;65.90;;;;;;5076911;28;20451;-73
2021/07/25 07:59:40;;;;;;;4.73;3.70;;;26.10;65.20;;;;;;5076869;28;20444;-73
2021/07/25 08:02:08;;;;;;;6.73;4.20;;;26.20;63.00;;;;;;5076678;28;20488;-73
2021/07/25 08:04:35;;;;;;;4.43;3.67;;;26.40;63.10;;;;;;5076738;28;20452;-73
2021/07/25 08:07:03;;;;;;;13.20;4.20;;;26.60;62.70;;;;;;5076719;28;20444;-73
2021/07/25 08:09:30;;;;;;;5.97;4.20;;;26.80;62.10;;;;;;5076630;28;20455;-73
2021/07/25 08:11:56;;;;;;;6.60;4.03;;;27.00;59.70;;;;;;5076296;28;20984;-73
2021/07/25 08:14:23;;;;;;;4.30;3.33;;;27.10;59.50;;;;;;5076448;28;20447;-73
2021/07/25 08:16:50;;;;;;;5.33;3.70;;;27.30;59.30;;;;;;5076021;28;20957;-73
2021/07/25 08:19:17;;;;;;;5.33;3.57;;;27.50;59.00;;;;;;5076483;28;20448;-73
2021/07/25 08:21:44;;;;;;;4.50;3.87;;;27.60;57.90;;;;;;5075998;28;20488;-73
2021/07/25 08:24:13;;;;;;;5.03;3.40;;;27.80;57.30;;;;;;5076334;28;20472;-73
2021/07/25 08:26:39;;;;;;;6.93;3.70;;;28.00;56.70;;;;;;5075912;28;20930;-73
2021/07/25 08:29:07;;;;;;;4.20;3.20;;;28.20;56.50;;;;;;5076129;28;20866;-73
2021/07/25 08:31:34;;;;;;;11.37;3.43;;;28.40;55.90;;;;;;5076059;28;20460;-74
2021/07/25 08:34:01;;;;;;;3.57;3.23;;;28.50;54.50;;;;;;5075719;28;20846;-74
2021/07/25 08:36:28;;;;;;;4.23;3.23;;;28.50;53.50;;;;;;5075861;28;20440;-73
2021/07/25 08:38:55;;;;;;;8.90;3.20;;;28.50;53.70;;;;;;5076043;28;20498;-73
2021/07/25 08:41:35;;;;;;;4.00;3.20;;;28.50;53.90;;;;;;5075923;28;20480;-73
2021/07/25 08:44:35;;;;;;;6.70;3.50;;;28.50;53.50;;;;;;5076045;28;20436;-72
2021/07/25 08:47:03;;;;;;;3.70;3.27;;;28.60;53.00;;;;;;5076000;28;20896;-73
2021/07/25 08:49:41;;;;;;;5.20;4.37;;;28.70;53.80;;;;;;5075518;28;20452;-73
2021/07/25 08:52:17;;;;;;;9.20;3.60;;;28.70;53.10;;;;;;5075786;28;20464;-73
2021/07/25 08:54:44;;;;;;;3.27;2.93;;;28.70;52.80;;;;;;5075851;28;20439;-72
2021/07/25 08:57:16;;;;;;;5.00;3.10;;;28.70;53.70;;;;;;5075607;28;20841;-74
2021/07/25 08:59:44;;;;;;;3.43;3.13;;;28.80;53.90;;;;;;5075755;28;20534;-72
2021/07/25 09:02:20;;;;;;;5.80;3.20;;;29.00;53.50;;;;;;5075540;28;20489;-73
2021/07/25 09:04:48;;;;;;;4.20;3.30;;;29.20;53.10;;;;;;5075703;28;20478;-74
2021/07/25 09:07:15;;;;;;;7.37;3.37;;;29.50;52.70;;;;;;5075422;28;20444;-74
2021/07/25 09:09:43;;;;;;;7.90;3.20;;;29.80;52.90;;;;;;5075550;28;20444;-73
2021/07/25 09:12:14;;;;;;;4.97;2.93;;;29.90;49.40;;;;;;5075399;28;20491;-74
2021/07/25 09:14:45;;;;;;;5.33;3.00;;;30.00;50.30;;;;;;5074974;28;20448;-73
2021/07/25 09:17:12;;;;;;;4.00;3.07;;;30.10;50.10;;;;;;5074976;28;20953;-74
2021/07/25 09:20:11;;;;;;;2.90;2.70;;;30.20;49.00;;;;;;5075744;28;20935;-74
2021/07/25 09:22:39;;;;;;;3.00;2.73;;;30.20;49.50;;;;;;5074784;28;20488;-73
2021/07/25 09:25:07;;;;;;;5.40;3.17;;;30.40;49.20;;;;;;5074870;28;20934;-73
2021/07/25 09:27:35;;;;;;;4.10;3.10;;;30.60;47.70;;;;;;5075205;28;20454;-73
2021/07/25 09:30:17;;;;;;;4.53;3.20;;;30.70;47.50;;;;;;5075231;28;20467;-75
2021/07/25 09:32:44;;;;;;;4.10;3.20;;;30.90;47.50;;;;;;5074888;28;20494;-75
2021/07/25 09:35:23;;;;;;;5.33;3.00;;;31.20;47.40;;;;;;5074964;28;20440;-73
2021/07/25 09:37:51;;;;;;;6.90;3.03;;;31.40;46.00;;;;;;5075127;28;20424;-75
2021/07/25 09:40:25;;;;;;;3.40;3.10;;;31.60;44.50;;;;;;5074668;28;20879;-75
2021/07/25 09:43:07;;;;;;;3.30;2.90;;;31.70;43.70;;;;;;5074804;28;20486;-74
2021/07/25 09:45:54;;;;;;;5.20;2.90;;;31.60;43.00;;;;;;5074940;28;20428;-75
2021/07/25 09:48:22;;;;;;;3.00;2.80;;;31.60;43.40;;;;;;5074817;28;20550;-73
2021/07/25 09:50:48;;;;;;;3.30;2.97;;;31.30;43.70;;;;;;5074681;28;20444;-75
2021/07/25 09:53:16;;;;;;;6.00;3.50;;;31.10;44.90;;;;;;5074815;28;20467;-75
2021/07/25 09:55:43;;;;;;;5.20;3.10;;;31.00;45.90;;;;;;5074775;28;20455;-73
2021/07/25 09:58:13;;;;;;;6.10;3.37;;;30.90;45.40;;;;;;5074416;28;20440;-75
2021/07/25 10:00:41;;;;;;;5.37;3.30;;;30.60;45.50;;;;;;5074399;28;20494;-75
2021/07/25 10:03:24;;;;;;;5.73;3.63;;;30.40;46.30;;;;;;5073991;28;20480;-74
2021/07/25 10:05:51;;;;;;;3.73;3.43;;;30.00;46.40;;;;;;5074491;28;20448;-73
2021/07/25 10:08:20;;;;;;;4.17;3.20;;;29.60;46.90;;;;;;5074083;28;20998;-73
2021/07/25 10:10:48;;;;;;;4.87;2.73;;;29.30;48.00;;;;;;5074338;28;20441;-72
2021/07/25 10:13:18;;;;;;;4.60;3.37;;;28.90;49.00;;;;;;5074301;28;20440;-70
2021/07/25 10:15:51;;;;;;;10.03;4.40;;;28.60;52.10;;;;;;5075142;28;20847;-71
2021/07/25 10:18:18;;;;;;;9.60;5.00;;;28.50;54.20;;;;;;5074239;28;20429;-72
2021/07/25 10:20:46;;;;;;;8.70;4.20;;;28.40;55.80;;;;;;5074170;28;20440;-73
2021/07/25 10:23:15;;;;;;;4.00;3.27;;;28.30;56.60;;;;;;5073662;28;20899;-73
2021/07/25 10:25:44;;;;;;;4.40;3.43;;;28.30;57.30;;;;;;5074359;28;20452;-73
2021/07/25 10:28:12;;;;;;;4.03;3.33;;;28.30;57.70;;;;;;5074060;28;20455;-73
2021/07/25 10:30:42;;;;;;;5.80;4.13;;;28.40;58.40;;;;;;5073988;28;20452;-73
2021/07/25 10:33:08;;;;;;;7.23;3.80;;;28.50;59.00;;;;;;5073912;28;20460;-74
2021/07/25 10:35:35;;;;;;;6.40;4.00;;;28.70;58.70;;;;;;5073596;28;20935;-74
2021/07/25 10:38:03;;;;;;;6.60;3.10;;;29.10;58.20;;;;;;5073875;28;20448;-74
2021/07/25 10:40:32;;;;;;;6.27;3.80;;;29.60;57.40;;;;;;5073810;28;20449;-74
2021/07/25 10:42:59;;;;;;;3.93;3.37;;;30.50;55.50;;;;;;5073666;28;20472;-74
2021/07/25 10:45:26;;;;;;;6.60;3.50;;;31.30;51.50;;;;;;5073809;28;20443;-74
2021/07/25 10:48:12;;;;;;;4.70;3.10;;;32.30;50.00;;;;;;5073806;28;20440;-74
2021/07/25 10:50:39;;;;;;;7.53;3.73;;;33.40;49.90;;;;;;5073831;28;20428;-74
2021/07/25 10:53:06;;;;;;;4.47;2.80;;;34.40;47.40;;;;;;5073699;28;20467;-74
2021/07/25 10:55:45;;;;;;;7.53;2.87;;;35.30;44.20;;;;;;5073683;28;20451;-74
2021/07/25 10:58:13;;;;;;;5.70;3.67;;;36.30;39.80;;;;;;5073664;28;20451;-74
2021/07/25 11:00:42;;;;;;;6.83;3.20;;;37.20;37.60;;;;;;5073675;28;20444;-75
2021/07/25 11:03:12;;;;;;;2.78;2.58;;;38.00;34.90;;;;;;5073180;28;20705;-75
2021/07/25 11:06:13;;;;;;;2.63;2.42;;;38.90;33.10;;;;;;5073625;28;20217;-75
2021/07/25 11:08:42;;;;;;;2.80;2.60;;;39.70;31.50;;;;;;5073236;28;20663;-74
2021/07/25 11:11:56;;;;;;;3.03;2.80;;;40.40;30.90;;;;;;5073444;28;20222;-75
2021/07/25 11:15:06;;;;;;;4.53;2.83;;;41.10;29.60;;;;;;5073491;28;20190;-74
2021/07/25 11:17:52;;;;;;;2.85;2.15;;;41.80;28.60;;;;;;5073543;28;20193;-74
2021/07/25 11:20:38;;;;;;;2.85;2.40;;;42.40;28.30;;;;;;5073496;28;20600;-74
2021/07/25 11:23:06;;;;;;;4.95;2.97;;;42.90;27.30;;;;;;5072849;28;20265;-73
2021/07/25 11:25:34;;;;;;;2.30;2.10;;;43.20;24.00;;;;;;5073063;28;20690;-74
2021/07/25 11:28:02;;;;;;;2.05;1.83;;;43.10;23.30;;;;;;5073350;28;20197;-74
2021/07/25 11:31:07;;;;;;;3.20;2.10;;;43.30;24.60;;;;;;5073305;28;20232;-74
2021/07/25 11:33:53;;;;;;;2.10;1.88;;;43.80;24.70;;;;;;5073276;28;20240;-74
2021/07/25 11:36:23;;;;;;;2.25;2.00;;;44.20;24.50;;;;;;5073356;28;20186;-75
2021/07/25 11:38:53;;;;;;;2.90;2.35;;;44.60;24.20;;;;;;5074046;28;20198;-74
2021/07/25 11:41:22;;;;;;;2.80;1.90;;;45.00;24.10;;;;;;5073178;28;20226;-74
2021/07/25 11:43:51;;;;;;;6.65;2.10;;;45.40;23.50;;;;;;5073142;28;20225;-74
2021/07/25 11:46:29;;;;;;;2.70;2.15;;;45.70;21.00;;;;;;5073143;28;20209;-75
2021/07/25 11:49:13;;;;;;;2.15;1.95;;;45.70;20.50;;;;;;5072886;28;20564;-76
2021/07/25 11:51:48;;;;;;;2.20;1.95;;;45.50;20.20;;;;;;5073120;28;20225;-75
2021/07/25 11:54:18;;;;;;;2.88;1.70;;;44.80;20.90;;;;;;5073139;28;20555;-74
2021/07/25 11:57:02;;;;;;;3.70;1.85;;;44.40;22.10;;;;;;5072791;28;20209;-74
2021/07/25 11:59:30;;;;;;;2.17;1.90;;;44.20;21.10;;;;;;5073034;28;20209;-75
2021/07/25 12:01:57;;;;;;;3.67;2.63;;;44.10;22.00;;;;;;5072930;28;20248;-74
2021/07/25 12:04:26;;;;;;;3.58;2.30;;;43.80;22.60;;;;;;5073046;28;20205;-75
2021/07/25 12:07:05;;;;;;;2.30;2.10;;;43.50;23.40;;;;;;5072676;28;20547;-75
2021/07/25 12:09:33;;;;;;;3.55;2.38;;;42.80;23.80;;;;;;5072958;28;20193;-76
2021/07/25 12:12:08;;;;;;;4.15;2.45;;;41.90;24.80;;;;;;5072837;28;20222;-74
2021/07/25 12:14:36;;;;;;;3.92;2.30;;;41.10;25.80;;;;;;5072944;28;20190;-74
2021/07/25 12:17:04;;;;;;;2.33;2.13;;;40.30;25.50;;;;;;5072773;28;20284;-75
2021/07/25 12:19:35;;;;;;;2.70;2.17;;;39.40;26.00;;;;;;5072751;28;20224;-74
2021/07/25 12:22:08;;;;;;;3.03;2.70;;;38.70;27.60;;;;;;5072412;28;20225;-74
2021/07/25 12:24:36;;;;;;;5.93;2.30;;;37.90;28.10;;;;;;5073337;28;20689;-76
2021/07/25 12:27:05;;;;;;;2.20;2.00;;;37.20;29.30;;;;;;5076251;28;20213;-75
2021/07/25 12:29:42;;;;;;;2.67;2.30;;;36.60;29.60;;;;;;5076252;28;20208;-74
2021/07/25 12:32:23;;;;;;;4.70;2.27;;;35.90;30.40;;;;;;5076072;28;20520;-74
2021/07/25 12:34:51;;;;;;;4.80;2.53;;;35.40;33.00;;;;;;5076168;28;20447;-75
2021/07/25 12:37:30;;;;;;;3.33;2.63;;;35.00;34.30;;;;;;5076206;28;20439;-74
2021/07/25 12:40:08;;;;;;;3.57;2.20;;;34.50;34.40;;;;;;5077312;28;20812;-74
2021/07/25 12:42:42;;;;;;;2.60;2.40;;;33.90;34.50;;;;;;5075987;28;20522;-74
2021/07/25 12:45:29;;;;;;;5.33;2.30;;;33.40;35.50;;;;;;5076099;28;20435;-73
2021/07/25 12:48:36;;;;;;;5.10;1.87;;;32.90;36.40;;;;;;5076015;28;20428;-74
2021/07/25 12:51:10;;;;;;;4.87;2.00;;;33.00;38.80;;;;;;5075887;28;20428;-73